createdAt,value
2018-12-27T00:00:54.912Z,27.20
2018-12-27T00:03:22.504Z,31.33
2018-12-27T00:05:50.161Z,30.97
2018-12-27T00:08:17.748Z,29.50
2018-12-27T00:10:45.367Z,30.90
2018-12-27T00:13:12.967Z,30.75
2018-12-27T00:15:40.525Z,38.27
2018-12-27T00:18:09.106Z,31.23
2018-12-27T00:20:36.700Z,32.65
2018-12-27T00:23:04.263Z,34.03
2018-12-27T00:25:32.620Z,31.90
2018-12-27T00:28:00.168Z,34.40
2018-12-27T00:30:27.724Z,33.30
2018-12-27T00:33:02.927Z,38.53
2018-12-27T00:35:22.974Z,30.13
2018-12-27T00:37:51.550Z,41.13
2018-12-27T00:40:19.117Z,52.20
2018-12-27T00:42:46.770Z,44.35
2018-12-27T00:45:14.397Z,59.33
2018-12-27T00:47:41.973Z,41.13
2018-12-27T00:50:09.569Z,40.87
2018-12-27T00:52:37.118Z,47.53
2018-12-27T00:55:04.702Z,41.63
2018-12-27T00:57:32.261Z,73.23
2018-12-27T00:59:59.856Z,44.23
2018-12-27T01:02:27.432Z,74.93
2018-12-27T01:04:54.994Z,88.53
2018-12-27T01:07:23.347Z,108.23
2018-12-27T01:09:50.918Z,129.10
2018-12-27T01:12:18.508Z,161.80
2018-12-27T01:14:46.093Z,96.93
2018-12-27T01:17:14.150Z,140.37
2018-12-27T01:19:41.768Z,140.07
2018-12-27T01:22:09.348Z,127.03
2018-12-27T01:24:36.946Z,135.70
2018-12-27T01:27:06.315Z,163.93
2018-12-27T01:29:33.887Z,105.05
2018-12-27T01:32:01.465Z,139.87
2018-12-27T01:34:29.023Z,87.37
2018-12-27T01:36:56.596Z,60.83
2018-12-27T01:39:24.156Z,34.33
2018-12-27T01:41:51.761Z,45.10
2018-12-27T01:44:19.325Z,42.42
2018-12-27T01:46:47.900Z,38.37
2018-12-27T01:49:15.500Z,36.55
2018-12-27T01:51:43.058Z,29.87
2018-12-27T01:54:10.649Z,36.90
2018-12-27T01:56:38.239Z,38.93
2018-12-27T01:59:05.793Z,33.97
2018-12-27T02:01:33.369Z,33.13
2018-12-27T02:04:01.972Z,36.28
2018-12-27T02:06:29.538Z,37.20
2018-12-27T02:08:57.120Z,27.27
2018-12-27T02:11:25.477Z,34.03
2018-12-27T02:13:53.841Z,34.13
2018-12-27T02:16:21.392Z,31.25
2018-12-27T02:18:49.938Z,32.57
2018-12-27T02:21:17.489Z,28.63
2018-12-27T02:23:45.085Z,35.83
2018-12-27T02:26:12.654Z,27.90
2018-12-27T02:28:40.266Z,27.50
2018-12-27T02:31:07.822Z,30.55
2018-12-27T02:33:35.836Z,29.70
2018-12-27T02:36:03.013Z,28.40
2018-12-27T02:38:30.602Z,29.08
2018-12-27T02:40:59.006Z,28.07
2018-12-27T02:43:26.605Z,26.77
2018-12-27T02:45:54.164Z,26.67
2018-12-27T02:48:21.762Z,21.67
2018-12-27T02:50:49.346Z,24.50
2018-12-27T02:53:16.917Z,24.98
2018-12-27T02:55:44.497Z,24.77
2018-12-27T02:58:12.084Z,27.55
2018-12-27T03:00:39.647Z,25.07
2018-12-27T03:03:07.246Z,31.83
2018-12-27T03:05:35.804Z,26.10
2018-12-27T03:08:03.398Z,31.17
2018-12-27T03:10:31.741Z,31.70
2018-12-27T03:12:59.330Z,32.00
2018-12-27T03:15:26.933Z,28.15
2018-12-27T03:17:54.513Z,25.12
2018-12-27T03:20:22.109Z,27.83
2018-12-27T03:22:50.589Z,28.08
2018-12-27T03:25:18.949Z,28.10
2018-12-27T03:27:46.514Z,30.58
2018-12-27T03:30:14.119Z,27.70
2018-12-27T03:32:41.686Z,30.20
2018-12-27T03:35:09.264Z,30.00
2018-12-27T03:37:36.852Z,27.15
2018-12-27T03:40:05.174Z,24.35
2018-12-27T03:42:32.758Z,29.03
2018-12-27T03:45:00.350Z,49.45
2018-12-27T03:47:27.905Z,28.47
2018-12-27T03:49:56.241Z,50.15
2018-12-27T03:52:23.842Z,24.33
2018-12-27T03:54:51.392Z,97.50
2018-12-27T03:57:18.978Z,104.30
2018-12-27T03:59:46.551Z,133.37
2018-12-27T04:02:14.157Z,49.13
2018-12-27T04:04:42.485Z,25.58
2018-12-27T04:07:10.072Z,26.87
2018-12-27T04:09:37.641Z,24.77
2018-12-27T04:12:05.192Z,20.83
2018-12-27T04:14:32.789Z,29.33
2018-12-27T04:17:00.419Z,51.37
2018-12-27T04:19:28.001Z,26.98
2018-12-27T04:21:55.562Z,27.90
2018-12-27T04:24:23.163Z,27.92
2018-12-27T04:26:50.712Z,28.50
2018-12-27T04:29:18.314Z,25.62
2018-12-27T04:31:45.871Z,22.70
2018-12-27T04:34:13.462Z,28.02
2018-12-27T04:36:41.020Z,24.43
2018-12-27T04:39:08.622Z,26.23
2018-12-27T04:41:36.190Z,20.27
2018-12-27T04:46:37.714Z,26.43
2018-12-27T04:49:05.307Z,25.17
2018-12-27T04:51:32.865Z,28.80
2018-12-27T04:54:00.428Z,24.67
2018-12-27T04:56:28.020Z,29.73
2018-12-27T04:58:55.583Z,24.05
2018-12-27T05:01:23.164Z,23.70
2018-12-27T05:03:50.732Z,23.02
2018-12-27T05:06:18.285Z,28.60
2018-12-27T05:08:45.917Z,24.67
2018-12-27T05:11:13.499Z,26.30
2018-12-27T05:13:41.087Z,27.67
2018-12-27T05:16:08.658Z,22.58
2018-12-27T05:18:36.251Z,26.37
2018-12-27T05:21:03.826Z,25.50
2018-12-27T05:23:31.488Z,22.65
2018-12-27T05:25:59.085Z,22.35
2018-12-27T05:28:26.648Z,27.95
2018-12-27T05:30:54.236Z,22.90
2018-12-27T05:33:21.797Z,25.12
2018-12-27T05:35:49.383Z,27.30
2018-12-27T05:38:16.996Z,27.95
2018-12-27T05:40:44.564Z,25.00
2018-12-27T05:43:12.151Z,24.55
2018-12-27T05:45:39.732Z,27.33
2018-12-27T05:48:07.321Z,25.05
2018-12-27T05:50:34.869Z,25.10
2018-12-27T05:53:03.445Z,26.60
2018-12-27T05:55:34.440Z,27.70
2018-12-27T05:57:58.647Z,30.35
2018-12-27T06:00:26.210Z,25.00
2018-12-27T06:02:53.861Z,27.95
2018-12-27T06:05:21.423Z,28.02
2018-12-27T06:07:49.012Z,25.05
2018-12-27T06:10:16.604Z,25.60
2018-12-27T06:12:44.196Z,22.70
2018-12-27T06:15:12.688Z,26.73
2018-12-27T06:17:40.268Z,24.05
2018-12-27T06:20:07.864Z,23.05
2018-12-27T06:22:35.436Z,27.65
2018-12-27T06:25:03.026Z,33.90
2018-12-27T06:27:30.596Z,30.50
2018-12-27T06:29:58.953Z,24.80
2018-12-27T06:32:26.505Z,30.73
2018-12-27T06:34:54.090Z,24.17
2018-12-27T06:37:21.654Z,20.33
2018-12-27T06:39:50.009Z,23.15
2018-12-27T06:42:17.567Z,30.90
2018-12-27T06:44:46.140Z,30.15
2018-12-27T06:47:13.721Z,24.40
2018-12-27T06:49:41.285Z,23.55
2018-12-27T06:52:08.945Z,25.52
2018-12-27T06:54:36.471Z,24.35
2018-12-27T06:57:04.098Z,25.25
2018-12-27T06:59:31.746Z,27.27
2018-12-27T07:01:59.335Z,21.70
2018-12-27T07:04:26.900Z,20.90
2018-12-27T07:06:54.482Z,24.47
2018-12-27T07:09:22.812Z,19.80
2018-12-27T07:11:50.392Z,22.87
2018-12-27T07:14:17.995Z,17.65
2018-12-27T07:16:45.552Z,33.57
2018-12-27T07:19:14.125Z,129.80
2018-12-27T07:21:41.684Z,69.60
2018-12-27T07:24:09.277Z,76.72
2018-12-27T07:26:36.838Z,78.27
2018-12-27T07:29:04.428Z,19.75
2018-12-27T07:31:31.998Z,18.65
2018-12-27T07:33:59.585Z,17.00
2018-12-27T07:36:27.148Z,23.52
2018-12-27T07:38:54.700Z,21.17
2018-12-27T07:41:22.286Z,26.63
2018-12-27T07:43:49.845Z,20.33
2018-12-27T07:46:17.439Z,21.27
2018-12-27T07:48:45.033Z,27.77
2018-12-27T07:51:12.592Z,26.60
2018-12-27T07:53:41.181Z,21.37
2018-12-27T07:56:08.751Z,21.43
2018-12-27T07:58:36.310Z,19.23
2018-12-27T08:01:03.887Z,21.80
2018-12-27T08:03:31.446Z,24.05
2018-12-27T08:05:59.038Z,23.10
2018-12-27T08:08:26.617Z,21.33
2018-12-27T08:10:54.207Z,20.77
2018-12-27T08:13:21.767Z,20.65
2018-12-27T08:15:49.353Z,20.97
2018-12-27T08:18:16.937Z,21.83
2018-12-27T08:20:44.529Z,19.80
2018-12-27T08:23:12.133Z,24.60
2018-12-27T08:25:39.699Z,22.07
2018-12-27T08:28:07.299Z,28.00
2018-12-27T08:30:34.861Z,22.20
2018-12-27T08:33:03.412Z,25.27
2018-12-27T08:35:31.000Z,27.13
2018-12-27T08:37:58.565Z,27.75
2018-12-27T08:40:26.158Z,26.40
2018-12-27T08:42:53.725Z,32.03
2018-12-27T08:45:21.329Z,24.40
2018-12-27T08:47:48.914Z,31.15
2018-12-27T08:50:16.485Z,31.52
2018-12-27T08:52:44.070Z,27.23
2018-12-27T08:55:12.559Z,24.15
2018-12-27T08:57:40.127Z,24.70
2018-12-27T09:00:07.721Z,24.20
2018-12-27T09:02:35.295Z,24.73
2018-12-27T09:05:02.909Z,23.87
2018-12-27T09:07:30.484Z,55.28
2018-12-27T09:09:58.044Z,23.15
2018-12-27T09:12:25.625Z,24.23
2018-12-27T09:14:53.173Z,28.40
2018-12-27T09:17:20.752Z,32.67
2018-12-27T09:19:49.338Z,30.50
2018-12-27T09:22:17.674Z,36.13
2018-12-27T09:24:45.259Z,34.90
2018-12-27T09:27:12.809Z,32.87
2018-12-27T09:29:40.364Z,35.10
2018-12-27T09:32:07.949Z,33.67
2018-12-27T09:34:35.500Z,43.80
2018-12-27T09:37:04.092Z,41.10
2018-12-27T09:39:31.687Z,36.27
2018-12-27T09:41:59.270Z,41.60
2018-12-27T09:44:27.874Z,52.27
2018-12-27T09:46:55.441Z,39.70
2018-12-27T09:49:22.992Z,40.97
2018-12-27T09:51:50.577Z,38.83
2018-12-27T09:54:18.149Z,41.40
2018-12-27T09:56:45.734Z,36.87
2018-12-27T09:59:13.318Z,36.67
2018-12-27T10:01:40.881Z,38.27
2018-12-27T10:04:08.472Z,35.63
2018-12-27T10:06:36.021Z,36.30
2018-12-27T10:09:03.572Z,37.40
2018-12-27T10:11:31.150Z,38.40
2018-12-27T10:13:58.695Z,38.97
2018-12-27T10:16:26.273Z,41.20
2018-12-27T10:18:53.830Z,40.17
2018-12-27T10:21:21.411Z,45.03
2018-12-27T10:23:48.993Z,45.03
2018-12-27T10:26:16.582Z,41.10
2018-12-27T10:28:44.133Z,38.23
2018-12-27T10:31:11.708Z,47.30
2018-12-27T10:33:39.265Z,46.27
2018-12-27T10:36:06.839Z,47.67
2018-12-27T10:38:34.391Z,47.40
2018-12-27T10:41:01.970Z,40.80
2018-12-27T10:43:29.550Z,42.60
2018-12-27T10:45:57.096Z,34.53
2018-12-27T10:48:24.668Z,36.70
2018-12-27T10:50:52.249Z,33.73
2018-12-27T10:53:20.579Z,29.80
2018-12-27T10:55:48.153Z,26.70
2018-12-27T10:58:15.705Z,35.40
2018-12-27T11:00:43.332Z,25.43
2018-12-27T11:03:10.886Z,23.80
2018-12-27T11:05:38.442Z,27.00
2018-12-27T11:08:06.027Z,23.80
2018-12-27T11:10:33.578Z,23.27
2018-12-27T11:13:02.154Z,25.13
2018-12-27T11:15:29.714Z,24.67
2018-12-27T11:17:57.269Z,22.60
2018-12-27T11:20:24.871Z,20.03
2018-12-27T11:22:52.438Z,27.17
2018-12-27T11:25:19.992Z,26.57
2018-12-27T11:27:48.340Z,19.60
2018-12-27T11:30:15.912Z,20.73
2018-12-27T11:32:43.491Z,22.03
2018-12-27T11:35:11.064Z,18.00
2018-12-27T11:37:38.612Z,21.53
2018-12-27T11:40:06.198Z,19.90
2018-12-27T11:42:33.747Z,25.33
2018-12-27T11:45:02.308Z,28.20
2018-12-27T11:47:29.871Z,24.83
2018-12-27T11:49:57.453Z,25.53
2018-12-27T11:52:25.002Z,26.40
2018-12-27T11:54:52.579Z,26.67
2018-12-27T11:57:20.157Z,24.87
2018-12-27T11:59:48.481Z,33.83
2018-12-27T12:02:16.060Z,27.37
2018-12-27T12:04:43.604Z,26.83
2018-12-27T12:07:11.265Z,31.43
2018-12-27T12:09:38.840Z,25.43
2018-12-27T12:12:06.423Z,19.80
2018-12-27T12:14:34.769Z,21.43
2018-12-27T12:17:02.321Z,22.50
2018-12-27T12:19:29.878Z,21.63
2018-12-27T12:21:57.456Z,21.63
2018-12-27T12:24:25.003Z,21.33
2018-12-27T12:26:52.588Z,23.07
2018-12-27T12:29:20.140Z,31.33
2018-12-27T12:31:47.724Z,27.80
2018-12-27T12:34:16.042Z,32.73
2018-12-27T12:36:43.593Z,32.67
2018-12-27T12:39:11.181Z,31.27
2018-12-27T12:41:38.818Z,33.20
2018-12-27T12:44:06.394Z,34.40
2018-12-27T12:46:34.044Z,36.77
2018-12-27T12:49:01.626Z,36.50
2018-12-27T12:51:29.176Z,35.43
2018-12-27T12:53:56.771Z,39.00
2018-12-27T12:56:24.337Z,50.80
2018-12-27T12:58:51.884Z,42.10
2018-12-27T13:01:21.564Z,43.20
2018-12-27T13:03:49.160Z,40.00
2018-12-27T13:06:18.088Z,51.53
2018-12-27T13:08:44.522Z,48.50
2018-12-27T13:11:12.100Z,50.37
2018-12-27T13:13:39.649Z,48.40
2018-12-27T13:16:07.228Z,50.30
2018-12-27T13:18:34.788Z,50.13
2018-12-27T13:21:02.371Z,56.27
2018-12-27T13:23:29.946Z,50.80
2018-12-27T13:25:57.501Z,48.97
2018-12-27T13:28:25.096Z,46.70
2018-12-27T13:30:52.679Z,41.40
2018-12-27T13:33:20.244Z,45.40
2018-12-27T13:35:48.593Z,52.73
2018-12-27T13:38:16.148Z,44.23
2018-12-27T13:40:43.727Z,42.27
2018-12-27T13:43:11.334Z,48.30
2018-12-27T13:45:38.888Z,42.60
2018-12-27T13:48:06.552Z,43.33
2018-12-27T13:50:34.125Z,52.90
2018-12-27T13:53:01.704Z,49.43
2018-12-27T13:55:29.257Z,43.70
2018-12-27T13:57:56.833Z,52.67
2018-12-27T14:00:24.390Z,43.47
2018-12-27T14:02:52.749Z,45.43
2018-12-27T14:05:20.305Z,51.37
2018-12-27T14:07:47.888Z,40.73
2018-12-27T14:10:15.443Z,41.97
2018-12-27T14:12:44.774Z,41.90
2018-12-27T14:15:12.353Z,45.93
2018-12-27T14:17:39.898Z,43.60
2018-12-27T14:20:07.485Z,45.40
2018-12-27T14:22:35.071Z,48.13
2018-12-27T14:25:03.401Z,58.67
2018-12-27T14:27:30.980Z,51.20
2018-12-27T14:29:58.540Z,48.73
2018-12-27T14:32:26.117Z,53.70
2018-12-27T14:34:53.673Z,50.17
2018-12-27T14:37:21.225Z,51.60
2018-12-27T14:39:48.821Z,46.17
2018-12-27T14:42:16.972Z,48.27
2018-12-27T14:44:45.314Z,49.23
2018-12-27T14:47:13.068Z,49.30
2018-12-27T14:49:40.656Z,52.70
2018-12-27T14:52:08.233Z,51.47
2018-12-27T14:54:35.814Z,49.17
2018-12-27T14:57:03.367Z,49.15
2018-12-27T14:59:30.909Z,55.80
2018-12-27T15:01:58.480Z,51.90
2018-12-27T15:04:26.036Z,53.93
2018-12-27T15:06:53.657Z,50.80
2018-12-27T15:09:22.009Z,51.93
2018-12-27T15:11:49.573Z,51.63
2018-12-27T15:14:17.149Z,50.43
2018-12-27T15:16:45.071Z,54.77
2018-12-27T15:19:12.342Z,49.93
2018-12-27T15:21:39.893Z,60.17
2018-12-27T15:24:07.491Z,51.67
2018-12-27T15:26:35.801Z,75.60
2018-12-27T15:29:03.349Z,64.17
2018-12-27T15:31:31.919Z,54.93
2018-12-27T15:33:59.478Z,50.87
2018-12-27T15:36:27.073Z,48.23
2018-12-27T15:38:54.633Z,51.50
2018-12-27T15:41:22.222Z,52.33
2018-12-27T15:43:49.801Z,51.10
2018-12-27T15:46:18.144Z,49.33
2018-12-27T15:48:45.690Z,52.87
2018-12-27T15:51:14.244Z,52.60
2018-12-27T15:53:41.829Z,53.97
2018-12-27T15:56:09.389Z,52.87
2018-12-27T15:58:36.993Z,51.73
2018-12-27T16:01:04.581Z,53.20
2018-12-27T16:03:32.146Z,54.70
2018-12-27T16:05:59.741Z,51.60
2018-12-27T16:08:27.328Z,51.87
2018-12-27T16:10:55.890Z,54.23
2018-12-27T16:13:23.449Z,48.17
2018-12-27T16:15:51.040Z,54.80
2018-12-27T16:18:18.589Z,56.50
2018-12-27T16:20:46.169Z,52.10
2018-12-27T16:23:13.749Z,55.63
2018-12-27T16:25:41.297Z,55.07
2018-12-27T16:28:08.893Z,55.67
2018-12-27T16:30:37.325Z,54.53
2018-12-27T16:33:04.893Z,55.00
2018-12-27T16:35:32.485Z,62.23
2018-12-27T16:38:00.802Z,57.67
2018-12-27T16:40:28.369Z,58.10
2018-12-27T16:42:55.960Z,62.53
2018-12-27T16:45:23.544Z,59.13
2018-12-27T16:47:51.892Z,55.23
2018-12-27T16:50:19.466Z,55.20
2018-12-27T16:52:47.045Z,61.20
2018-12-27T16:55:14.596Z,64.23
2018-12-27T16:57:42.937Z,48.00
2018-12-27T17:00:10.480Z,45.10
2018-12-27T17:02:38.062Z,47.10
2018-12-27T17:05:05.640Z,43.00
2018-12-27T17:07:33.958Z,52.00
2018-12-27T17:10:02.506Z,43.23
2018-12-27T17:12:30.091Z,47.57
2018-12-27T17:14:57.638Z,44.70
2018-12-27T17:17:25.242Z,49.73
2018-12-27T17:19:52.806Z,42.47
2018-12-27T17:22:21.162Z,46.17
2018-12-27T17:24:48.716Z,49.27
2018-12-27T17:27:16.297Z,54.63
2018-12-27T17:29:43.873Z,66.00
2018-12-27T17:32:12.203Z,96.77
2018-12-27T17:34:39.801Z,74.07
2018-12-27T17:37:07.402Z,52.30
2018-12-27T17:39:35.973Z,48.23
2018-12-27T17:42:03.531Z,56.27
2018-12-27T17:44:31.117Z,54.93
2018-12-27T17:46:58.677Z,50.77
2018-12-27T17:49:27.008Z,39.80
2018-12-27T17:51:55.617Z,41.50
2018-12-27T17:54:23.196Z,45.83
2018-12-27T17:56:50.783Z,39.23
2018-12-27T17:59:19.124Z,39.17
2018-12-27T18:01:46.677Z,36.50
2018-12-27T18:04:14.253Z,40.50
2018-12-27T18:06:41.804Z,36.97
2018-12-27T18:09:09.387Z,34.30
2018-12-27T18:11:36.945Z,34.43
2018-12-27T18:14:04.528Z,36.20
2018-12-27T18:16:32.106Z,53.27
2018-12-27T18:18:59.659Z,46.53
2018-12-27T18:21:27.242Z,49.07
2018-12-27T18:23:54.802Z,34.97
2018-12-27T18:26:22.381Z,41.10
2018-12-27T18:28:49.937Z,56.07
2018-12-27T18:31:17.525Z,48.50
2018-12-27T18:33:45.121Z,48.13
2018-12-27T18:36:12.702Z,50.33
2018-12-27T18:38:40.256Z,66.10
2018-12-27T18:41:07.836Z,96.60
2018-12-27T18:43:35.548Z,168.33
2018-12-27T18:46:03.133Z,166.47
2018-12-27T18:48:30.688Z,117.47
2018-12-27T18:50:58.261Z,97.80
2018-12-27T18:53:25.813Z,83.53
2018-12-27T18:55:53.676Z,70.57
2018-12-27T18:58:21.262Z,57.67
2018-12-27T19:00:49.011Z,46.70
2018-12-27T19:03:16.596Z,43.13
2018-12-27T19:05:44.145Z,41.10
2018-12-27T19:08:12.488Z,48.03
2018-12-27T19:10:40.089Z,33.73
2018-12-27T19:13:07.665Z,35.97
2018-12-27T19:15:37.085Z,33.80
2018-12-27T19:18:04.678Z,32.73
2018-12-27T19:20:32.236Z,31.00
2018-12-27T19:22:59.813Z,41.80
2018-12-27T19:25:27.373Z,39.17
2018-12-27T19:27:54.943Z,31.40
2018-12-27T19:30:22.546Z,31.60
2018-12-27T19:32:50.096Z,39.60
2018-12-27T19:35:17.653Z,41.13
2018-12-27T19:37:52.134Z,47.10
2018-12-27T19:40:13.927Z,42.60
2018-12-27T19:42:41.478Z,37.00
2018-12-27T19:45:09.065Z,39.33
2018-12-27T19:47:36.641Z,44.13
2018-12-27T19:50:05.215Z,37.30
2018-12-27T19:52:32.781Z,34.77
2018-12-27T19:55:00.362Z,30.37
2018-12-27T19:57:27.915Z,39.03
2018-12-27T19:59:55.492Z,33.93
2018-12-27T20:02:23.052Z,30.97
2018-12-27T20:04:50.645Z,28.10
2018-12-27T20:07:18.201Z,24.57
2018-12-27T20:09:45.761Z,25.10
2018-12-27T20:12:14.337Z,23.93
2018-12-27T20:14:42.656Z,23.03
2018-12-27T20:17:10.236Z,21.40
2018-12-27T20:19:41.019Z,29.90
2018-12-27T20:22:13.936Z,24.10
2018-12-27T20:24:44.195Z,25.30
2018-12-27T20:27:12.545Z,22.70
2018-12-27T20:29:40.651Z,25.87
2018-12-27T20:32:08.970Z,25.40
2018-12-27T20:34:38.576Z,21.67
2018-12-27T20:37:06.165Z,18.80
2018-12-27T20:39:45.137Z,19.17
2018-12-27T20:42:21.549Z,21.27
2018-12-27T20:44:58.213Z,24.47
2018-12-27T20:47:30.229Z,21.93
2018-12-27T20:49:58.044Z,26.43
2018-12-27T20:52:25.633Z,27.87
2018-12-27T20:54:53.273Z,38.50
2018-12-27T20:57:20.888Z,38.60
2018-12-27T20:59:52.058Z,28.63
2018-12-27T21:02:19.636Z,26.23
2018-12-27T21:04:47.984Z,28.87
2018-12-27T21:07:15.564Z,37.10
2018-12-27T21:09:43.160Z,26.00
2018-12-27T21:12:10.929Z,25.73
2018-12-27T21:14:38.516Z,24.53
2018-12-27T21:17:06.101Z,31.90
2018-12-27T21:19:33.677Z,28.37
2018-12-27T21:22:02.006Z,25.40
2018-12-27T21:24:29.566Z,24.00
2018-12-27T21:26:57.160Z,22.83
2018-12-27T21:29:24.741Z,21.43
2018-12-27T21:31:52.321Z,25.13
2018-12-27T21:34:19.901Z,23.93
2018-12-27T21:36:47.459Z,20.53
2018-12-27T21:39:15.038Z,23.33
2018-12-27T21:41:42.593Z,21.97
2018-12-27T21:44:11.334Z,41.70
2018-12-27T21:46:38.889Z,33.33
2018-12-27T21:49:06.470Z,24.43
2018-12-27T21:51:35.024Z,18.63
2018-12-27T21:54:02.582Z,14.67
2018-12-27T21:56:30.174Z,18.23
2018-12-27T21:58:57.723Z,16.10
2018-12-27T22:01:25.312Z,15.90
2018-12-27T22:03:53.624Z,25.50
2018-12-27T22:06:21.169Z,25.63
2018-12-27T22:08:48.744Z,20.10
2018-12-27T22:11:16.350Z,18.00
2018-12-27T22:13:43.933Z,16.37
2018-12-27T22:16:11.509Z,12.47
2018-12-27T22:18:40.103Z,15.70
2018-12-27T22:21:07.681Z,16.30
2018-12-27T22:23:35.256Z,19.13
2018-12-27T22:26:03.605Z,13.33
2018-12-27T22:28:38.047Z,15.87
2018-12-27T22:31:22.593Z,14.30
2018-12-27T22:33:57.564Z,13.03
2018-12-27T22:36:25.212Z,11.23
2018-12-27T22:38:52.764Z,13.03
2018-12-27T22:41:21.085Z,19.53
2018-12-27T22:43:48.664Z,25.43
2018-12-27T22:46:16.228Z,24.87
2018-12-27T22:48:43.811Z,30.97
2018-12-27T22:51:12.125Z,22.10
2018-12-27T22:53:39.710Z,25.73
2018-12-27T22:56:08.267Z,27.33
2018-12-27T22:58:35.850Z,23.53
2018-12-27T23:01:03.395Z,22.73
2018-12-27T23:03:30.937Z,22.97
2018-12-27T23:05:58.513Z,18.43
2018-12-27T23:08:26.069Z,15.93
2018-12-27T23:10:53.648Z,19.50
2018-12-27T23:13:21.201Z,21.73
2018-12-27T23:15:48.804Z,16.13
2018-12-27T23:18:16.374Z,20.17
2018-12-27T23:20:43.957Z,16.63
2018-12-27T23:23:11.721Z,18.13
2018-12-27T23:25:39.276Z,26.67
2018-12-27T23:28:06.857Z,20.40
2018-12-27T23:30:34.479Z,18.67
2018-12-27T23:33:02.058Z,20.20
2018-12-27T23:35:29.615Z,21.55
2018-12-27T23:37:57.170Z,23.70
2018-12-27T23:40:26.109Z,19.93
2018-12-27T23:42:54.340Z,22.10
2018-12-27T23:45:22.168Z,20.90
2018-12-27T23:47:50.132Z,23.20
2018-12-27T23:50:17.905Z,30.67
2018-12-27T23:52:45.576Z,25.00
2018-12-27T23:55:13.243Z,27.77
2018-12-27T23:57:40.860Z,22.27
